sensor_id;sensor_type;location;lat;lon;timestamp;temperature;humidity
27026;DHT22;14565;48.626;8.978;2022-11-12T00:00:41;5.30;99.90
27026;DHT22;14565;48.626;8.978;2022-11-12T00:03:07;5.30;99.90
27026;DHT22;14565;48.626;8.978;2022-11-12T00:05:33;5.40;99.90
27026;DHT22;14565;48.626;8.978;2022-11-12T00:07:59;5.40;99.90
27026;DHT22;14565;48.626;8.978;2022-11-12T00:10:26;5.30;99.90
27026;DHT22;14565;48.626;8.978;2022-11-12T00:12:51;5.30;99.90
27026;DHT22;14565;48.626;8.978;2022-11-12T00:15:17;5.30;99.90
27026;DHT22;14565;48.626;8.978;2022-11-12T00:17:43;5.30;99.90
27026;DHT22;14565;48.626;8.978;2022-11-12T00:20:10;5.20;99.90
27026;DHT22;14565;48.626;8.978;2022-11-12T00:22:36;5.30;99.90
27026;DHT22;14565;48.626;8.978;2022-11-12T00:25:02;5.20;99.90
27026;DHT22;14565;48.626;8.978;2022-11-12T00:27:28;5.10;99.90
27026;DHT22;14565;48.626;8.978;2022-11-12T00:29:54;5.20;99.90
27026;DHT22;14565;48.626;8.978;2022-11-12T00:32:19;5.10;99.90
27026;DHT22;14565;48.626;8.978;2022-11-12T00:34:45;5.20;99.90
27026;DHT22;14565;48.626;8.978;2022-11-12T00:37:11;5.20;99.90
27026;DHT22;14565;48.626;8.978;2022-11-12T00:39:36;5.30;99.90
27026;DHT22;14565;48.626;8.978;2022-11-12T00:42:02;5.30;99.90
27026;DHT22;14565;48.626;8.978;2022-11-12T00:44:28;5.20;99.90
27026;DHT22;14565;48.626;8.978;2022-11-12T00:46:54;5.30;99.90
27026;DHT22;14565;48.626;8.978;2022-11-12T00:49:20;5.40;99.90
27026;DHT22;14565;48.626;8.978;2022-11-12T00:51:46;5.30;99.90
27026;DHT22;14565;48.626;8.978;2022-11-12T00:54:12;5.30;99.90
27026;DHT22;14565;48.626;8.978;2022-11-12T00:56:37;5.30;99.90
27026;DHT22;14565;48.626;8.978;2022-11-12T00:59:03;5.20;99.90
27026;DHT22;14565;48.626;8.978;2022-11-12T01:01:29;5.20;99.90
27026;DHT22;14565;48.626;8.978;2022-11-12T01:03:57;5.20;99.90
27026;DHT22;14565;48.626;8.978;2022-11-12T01:06:24;5.20;99.90
27026;DHT22;14565;48.626;8.978;2022-11-12T01:08:50;5.20;99.90
27026;DHT22;14565;48.626;8.978;2022-11-12T01:11:19;5.20;99.90
27026;DHT22;14565;48.626;8.978;2022-11-12T01:13:46;5.20;99.90
27026;DHT22;14565;48.626;8.978;2022-11-12T01:16:20;5.20;99.90
27026;DHT22;14565;48.626;8.978;2022-11-12T01:18:47;5.30;99.90
27026;DHT22;14565;48.626;8.978;2022-11-12T01:21:13;5.10;99.90
27026;DHT22;14565;48.626;8.978;2022-11-12T01:23:41;5.10;99.90
27026;DHT22;14565;48.626;8.978;2022-11-12T01:26:10;5.10;99.90
27026;DHT22;14565;48.626;8.978;2022-11-12T01:28:36;5.10;99.90
27026;DHT22;14565;48.626;8.978;2022-11-12T01:33:37;5.10;99.90
27026;DHT22;14565;48.626;8.978;2022-11-12T01:36:03;5.10;99.90
27026;DHT22;14565;48.626;8.978;2022-11-12T01:38:33;5.10;99.90
27026;DHT22;14565;48.626;8.978;2022-11-12T01:40:59;5.10;99.90
27026;DHT22;14565;48.626;8.978;2022-11-12T01:43:24;5.10;99.90
27026;DHT22;14565;48.626;8.978;2022-11-12T01:45:50;5.10;99.90
27026;DHT22;14565;48.626;8.978;2022-11-12T01:48:32;5.00;99.90
27026;DHT22;14565;48.626;8.978;2022-11-12T01:51:00;5.10;99.90
27026;DHT22;14565;48.626;8.978;2022-11-12T01:53:30;5.20;99.90
27026;DHT22;14565;48.626;8.978;2022-11-12T01:55:57;5.10;99.90
27026;DHT22;14565;48.626;8.978;2022-11-12T01:58:27;5.10;99.90
27026;DHT22;14565;48.626;8.978;2022-11-12T02:00:54;5.10;99.90
27026;DHT22;14565;48.626;8.978;2022-11-12T02:03:23;5.10;99.90
27026;DHT22;14565;48.626;8.978;2022-11-12T02:05:56;5.00;99.90
27026;DHT22;14565;48.626;8.978;2022-11-12T02:08:24;5.10;99.90
27026;DHT22;14565;48.626;8.978;2022-11-12T02:10:51;5.10;99.90
27026;DHT22;14565;48.626;8.978;2022-11-12T02:13:17;5.00;99.90
27026;DHT22;14565;48.626;8.978;2022-11-12T02:16:03;4.90;99.90
27026;DHT22;14565;48.626;8.978;2022-11-12T02:18:29;4.80;99.90
27026;DHT22;14565;48.626;8.978;2022-11-12T02:20:58;4.80;99.90
27026;DHT22;14565;48.626;8.978;2022-11-12T02:23:27;4.80;99.90
27026;DHT22;14565;48.626;8.978;2022-11-12T02:25:52;4.80;99.90
27026;DHT22;14565;48.626;8.978;2022-11-12T02:28:18;4.70;99.90
27026;DHT22;14565;48.626;8.978;2022-11-12T02:30:46;4.80;99.90
27026;DHT22;14565;48.626;8.978;2022-11-12T02:33:12;4.80;99.90
27026;DHT22;14565;48.626;8.978;2022-11-12T02:35:39;4.80;99.90
27026;DHT22;14565;48.626;8.978;2022-11-12T02:38:05;4.80;99.90
27026;DHT22;14565;48.626;8.978;2022-11-12T02:40:31;4.80;99.90
27026;DHT22;14565;48.626;8.978;2022-11-12T02:42:57;4.70;99.90
27026;DHT22;14565;48.626;8.978;2022-11-12T02:45:23;4.70;99.90
27026;DHT22;14565;48.626;8.978;2022-11-12T02:47:49;4.70;99.90
27026;DHT22;14565;48.626;8.978;2022-11-12T02:50:15;4.60;99.90
27026;DHT22;14565;48.626;8.978;2022-11-12T02:52:41;4.70;99.90
27026;DHT22;14565;48.626;8.978;2022-11-12T02:55:08;4.70;99.90
27026;DHT22;14565;48.626;8.978;2022-11-12T02:57:35;4.70;99.90
27026;DHT22;14565;48.626;8.978;2022-11-12T03:00:06;4.70;99.90
27026;DHT22;14565;48.626;8.978;2022-11-12T03:02:32;4.60;99.90
27026;DHT22;14565;48.626;8.978;2022-11-12T03:04:58;4.60;99.90
27026;DHT22;14565;48.626;8.978;2022-11-12T03:07:23;4.50;99.90
27026;DHT22;14565;48.626;8.978;2022-11-12T03:09:50;4.60;99.90
27026;DHT22;14565;48.626;8.978;2022-11-12T03:12:15;4.50;99.90
27026;DHT22;14565;48.626;8.978;2022-11-12T03:14:41;4.50;99.90
27026;DHT22;14565;48.626;8.978;2022-11-12T03:17:06;4.60;99.90
27026;DHT22;14565;48.626;8.978;2022-11-12T03:19:32;4.50;99.90
27026;DHT22;14565;48.626;8.978;2022-11-12T03:21:58;4.50;99.90
27026;DHT22;14565;48.626;8.978;2022-11-12T03:24:23;4.50;99.90
27026;DHT22;14565;48.626;8.978;2022-11-12T03:26:49;4.40;99.90
27026;DHT22;14565;48.626;8.978;2022-11-12T03:29:15;4.40;99.90
27026;DHT22;14565;48.626;8.978;2022-11-12T03:31:40;4.40;99.90
27026;DHT22;14565;48.626;8.978;2022-11-12T03:34:06;4.40;99.90
27026;DHT22;14565;48.626;8.978;2022-11-12T03:36:32;4.50;99.90
27026;DHT22;14565;48.626;8.978;2022-11-12T03:38:57;4.50;99.90
27026;DHT22;14565;48.626;8.978;2022-11-12T03:41:23;4.50;99.90
27026;DHT22;14565;48.626;8.978;2022-11-12T03:43:49;4.40;99.90
27026;DHT22;14565;48.626;8.978;2022-11-12T03:46:14;4.30;99.90
27026;DHT22;14565;48.626;8.978;2022-11-12T03:48:40;4.40;99.90
27026;DHT22;14565;48.626;8.978;2022-11-12T03:51:05;4.30;99.90
27026;DHT22;14565;48.626;8.978;2022-11-12T03:53:31;4.30;99.90
27026;DHT22;14565;48.626;8.978;2022-11-12T03:55:57;4.30;99.90
27026;DHT22;14565;48.626;8.978;2022-11-12T03:58:22;4.30;99.90
27026;DHT22;14565;48.626;8.978;2022-11-12T04:00:48;4.40;99.90
27026;DHT22;14565;48.626;8.978;2022-11-12T04:03:13;4.40;99.90
27026;DHT22;14565;48.626;8.978;2022-11-12T04:05:39;4.40;99.90
27026;DHT22;14565;48.626;8.978;2022-11-12T04:08:24;4.40;99.90
27026;DHT22;14565;48.626;8.978;2022-11-12T04:11:04;4.30;99.90
27026;DHT22;14565;48.626;8.978;2022-11-12T04:13:30;4.30;99.90
27026;DHT22;14565;48.626;8.978;2022-11-12T04:16:11;4.30;99.90
27026;DHT22;14565;48.626;8.978;2022-11-12T04:18:58;4.30;99.90
27026;DHT22;14565;48.626;8.978;2022-11-12T04:21:44;4.20;99.90
27026;DHT22;14565;48.626;8.978;2022-11-12T04:24:18;4.20;99.90
27026;DHT22;14565;48.626;8.978;2022-11-12T04:27:02;4.10;99.90
27026;DHT22;14565;48.626;8.978;2022-11-12T04:29:28;4.10;99.90
27026;DHT22;14565;48.626;8.978;2022-11-12T04:32:12;4.20;99.90
27026;DHT22;14565;48.626;8.978;2022-11-12T04:34:38;4.20;99.90
27026;DHT22;14565;48.626;8.978;2022-11-12T04:37:04;4.20;99.90
27026;DHT22;14565;48.626;8.978;2022-11-12T04:39:30;4.20;99.90
27026;DHT22;14565;48.626;8.978;2022-11-12T04:41:56;4.30;99.90
27026;DHT22;14565;48.626;8.978;2022-11-12T04:44:41;4.20;99.90
27026;DHT22;14565;48.626;8.978;2022-11-12T04:49:56;4.20;99.90
27026;DHT22;14565;48.626;8.978;2022-11-12T04:52:21;4.30;99.90
27026;DHT22;14565;48.626;8.978;2022-11-12T04:54:47;4.30;99.90
27026;DHT22;14565;48.626;8.978;2022-11-12T04:57:13;4.40;99.90
27026;DHT22;14565;48.626;8.978;2022-11-12T04:59:38;4.40;99.90
27026;DHT22;14565;48.626;8.978;2022-11-12T05:02:04;4.30;99.90
27026;DHT22;14565;48.626;8.978;2022-11-12T05:04:29;4.30;99.90
27026;DHT22;14565;48.626;8.978;2022-11-12T05:06:55;4.40;99.90
27026;DHT22;14565;48.626;8.978;2022-11-12T05:09:24;4.40;99.90
27026;DHT22;14565;48.626;8.978;2022-11-12T05:11:50;4.40;99.90
27026;DHT22;14565;48.626;8.978;2022-11-12T05:14:17;4.30;99.90
27026;DHT22;14565;48.626;8.978;2022-11-12T05:16:43;4.40;99.90
27026;DHT22;14565;48.626;8.978;2022-11-12T05:19:09;4.30;99.90
27026;DHT22;14565;48.626;8.978;2022-11-12T05:21:34;4.30;99.90
27026;DHT22;14565;48.626;8.978;2022-11-12T05:24:19;4.20;99.90
27026;DHT22;14565;48.626;8.978;2022-11-12T05:26:45;4.30;99.90
27026;DHT22;14565;48.626;8.978;2022-11-12T05:29:11;4.30;99.90
27026;DHT22;14565;48.626;8.978;2022-11-12T05:31:36;4.30;99.90
27026;DHT22;14565;48.626;8.978;2022-11-12T05:34:02;4.20;99.90
27026;DHT22;14565;48.626;8.978;2022-11-12T05:36:28;4.20;99.90
27026;DHT22;14565;48.626;8.978;2022-11-12T05:38:53;4.30;99.90
27026;DHT22;14565;48.626;8.978;2022-11-12T05:41:19;4.40;99.90
27026;DHT22;14565;48.626;8.978;2022-11-12T05:43:45;4.40;99.90
27026;DHT22;14565;48.626;8.978;2022-11-12T05:46:10;4.40;99.90
27026;DHT22;14565;48.626;8.978;2022-11-12T05:48:36;4.30;99.90
27026;DHT22;14565;48.626;8.978;2022-11-12T05:51:02;4.30;99.90
27026;DHT22;14565;48.626;8.978;2022-11-12T05:53:28;4.30;99.90
27026;DHT22;14565;48.626;8.978;2022-11-12T05:55:53;4.20;99.90
27026;DHT22;14565;48.626;8.978;2022-11-12T05:58:19;4.20;99.90
27026;DHT22;14565;48.626;8.978;2022-11-12T06:00:44;4.20;99.90
27026;DHT22;14565;48.626;8.978;2022-11-12T06:03:11;3.70;99.90
27026;DHT22;14565;48.626;8.978;2022-11-12T06:05:37;3.50;99.90
27026;DHT22;14565;48.626;8.978;2022-11-12T06:08:04;3.50;99.90
27026;DHT22;14565;48.626;8.978;2022-11-12T06:10:31;3.60;99.90
27026;DHT22;14565;48.626;8.978;2022-11-12T06:12:56;3.30;99.90
27026;DHT22;14565;48.626;8.978;2022-11-12T06:15:22;3.00;99.90
27026;DHT22;14565;48.626;8.978;2022-11-12T06:17:52;2.90;99.90
27026;DHT22;14565;48.626;8.978;2022-11-12T06:20:18;2.90;99.90
27026;DHT22;14565;48.626;8.978;2022-11-12T06:22:44;2.80;99.90
27026;DHT22;14565;48.626;8.978;2022-11-12T06:25:09;2.80;99.90
27026;DHT22;14565;48.626;8.978;2022-11-12T06:27:35;2.80;99.90
27026;DHT22;14565;48.626;8.978;2022-11-12T06:30:02;3.10;99.90
27026;DHT22;14565;48.626;8.978;2022-11-12T06:32:28;3.10;99.90
27026;DHT22;14565;48.626;8.978;2022-11-12T06:34:54;3.20;99.90
27026;DHT22;14565;48.626;8.978;2022-11-12T06:37:19;3.10;99.90
27026;DHT22;14565;48.626;8.978;2022-11-12T06:39:46;3.10;99.90
27026;DHT22;14565;48.626;8.978;2022-11-12T06:42:13;3.20;99.90
27026;DHT22;14565;48.626;8.978;2022-11-12T06:44:38;3.20;99.90
27026;DHT22;14565;48.626;8.978;2022-11-12T06:47:04;3.20;99.90
27026;DHT22;14565;48.626;8.978;2022-11-12T06:49:30;3.20;99.90
27026;DHT22;14565;48.626;8.978;2022-11-12T06:51:55;3.20;99.90
27026;DHT22;14565;48.626;8.978;2022-11-12T06:54:21;3.20;99.90
27026;DHT22;14565;48.626;8.978;2022-11-12T06:56:47;3.30;99.90
27026;DHT22;14565;48.626;8.978;2022-11-12T06:59:12;3.40;99.90
27026;DHT22;14565;48.626;8.978;2022-11-12T07:01:38;3.40;99.90
27026;DHT22;14565;48.626;8.978;2022-11-12T07:04:03;3.50;99.90
27026;DHT22;14565;48.626;8.978;2022-11-12T07:06:29;3.50;99.90
27026;DHT22;14565;48.626;8.978;2022-11-12T07:08:55;3.50;99.90
27026;DHT22;14565;48.626;8.978;2022-11-12T07:11:21;3.60;99.90
27026;DHT22;14565;48.626;8.978;2022-11-12T07:13:47;3.70;99.90
27026;DHT22;14565;48.626;8.978;2022-11-12T07:16:14;3.80;99.90
27026;DHT22;14565;48.626;8.978;2022-11-12T07:18:44;3.80;99.90
27026;DHT22;14565;48.626;8.978;2022-11-12T07:21:12;3.90;99.90
27026;DHT22;14565;48.626;8.978;2022-11-12T07:23:38;3.90;99.90
27026;DHT22;14565;48.626;8.978;2022-11-12T07:26:24;4.00;99.90
27026;DHT22;14565;48.626;8.978;2022-11-12T07:28:52;4.10;99.90
27026;DHT22;14565;48.626;8.978;2022-11-12T07:31:19;4.10;99.90
27026;DHT22;14565;48.626;8.978;2022-11-12T07:33:46;4.20;99.90
27026;DHT22;14565;48.626;8.978;2022-11-12T07:36:17;4.40;99.90
27026;DHT22;14565;48.626;8.978;2022-11-12T07:38:44;4.50;99.90
27026;DHT22;14565;48.626;8.978;2022-11-12T07:43:36;4.60;99.90
27026;DHT22;14565;48.626;8.978;2022-11-12T07:46:14;4.70;99.90
27026;DHT22;14565;48.626;8.978;2022-11-12T07:48:40;4.90;99.90
27026;DHT22;14565;48.626;8.978;2022-11-12T07:53:36;5.10;99.90
27026;DHT22;14565;48.626;8.978;2022-11-12T07:56:03;5.20;99.90
27026;DHT22;14565;48.626;8.978;2022-11-12T07:58:31;5.30;99.90
27026;DHT22;14565;48.626;8.978;2022-11-12T08:00:57;5.40;99.90
27026;DHT22;14565;48.626;8.978;2022-11-12T08:03:23;5.60;99.90
27026;DHT22;14565;48.626;8.978;2022-11-12T08:05:49;5.80;99.90
27026;DHT22;14565;48.626;8.978;2022-11-12T08:08:14;5.80;99.90
27026;DHT22;14565;48.626;8.978;2022-11-12T08:10:40;5.70;99.90
27026;DHT22;14565;48.626;8.978;2022-11-12T08:13:06;5.90;99.90
27026;DHT22;14565;48.626;8.978;2022-11-12T08:15:32;6.00;99.90
27026;DHT22;14565;48.626;8.978;2022-11-12T08:17:57;6.20;99.90
27026;DHT22;14565;48.626;8.978;2022-11-12T08:20:23;6.20;99.90
27026;DHT22;14565;48.626;8.978;2022-11-12T08:22:49;6.50;99.90
27026;DHT22;14565;48.626;8.978;2022-11-12T08:25:15;6.40;99.90
27026;DHT22;14565;48.626;8.978;2022-11-12T08:27:41;6.30;99.90
27026;DHT22;14565;48.626;8.978;2022-11-12T08:30:07;6.30;99.90
27026;DHT22;14565;48.626;8.978;2022-11-12T08:32:33;6.60;99.90
27026;DHT22;14565;48.626;8.978;2022-11-12T08:34:59;6.60;99.90
27026;DHT22;14565;48.626;8.978;2022-11-12T08:37:25;6.50;99.90
27026;DHT22;14565;48.626;8.978;2022-11-12T08:39:50;6.60;99.90
27026;DHT22;14565;48.626;8.978;2022-11-12T08:42:16;6.60;99.90
27026;DHT22;14565;48.626;8.978;2022-11-12T08:44:41;6.70;99.90
27026;DHT22;14565;48.626;8.978;2022-11-12T08:47:07;6.70;99.90
27026;DHT22;14565;48.626;8.978;2022-11-12T08:49:33;6.70;99.90
27026;DHT22;14565;48.626;8.978;2022-11-12T08:51:58;6.70;99.90
27026;DHT22;14565;48.626;8.978;2022-11-12T08:54:24;6.90;99.90
27026;DHT22;14565;48.626;8.978;2022-11-12T08:56:50;6.90;99.90
27026;DHT22;14565;48.626;8.978;2022-11-12T08:59:16;6.90;99.90
27026;DHT22;14565;48.626;8.978;2022-11-12T09:01:41;6.90;99.90
27026;DHT22;14565;48.626;8.978;2022-11-12T09:04:07;7.00;99.90
27026;DHT22;14565;48.626;8.978;2022-11-12T09:06:33;7.20;99.90
27026;DHT22;14565;48.626;8.978;2022-11-12T09:08:58;7.20;99.90
27026;DHT22;14565;48.626;8.978;2022-11-12T09:11:24;7.40;99.90
27026;DHT22;14565;48.626;8.978;2022-11-12T09:13:53;7.40;99.90
27026;DHT22;14565;48.626;8.978;2022-11-12T09:16:18;7.70;99.90
27026;DHT22;14565;48.626;8.978;2022-11-12T09:18:46;7.90;99.90
27026;DHT22;14565;48.626;8.978;2022-11-12T09:21:12;8.00;99.90
27026;DHT22;14565;48.626;8.978;2022-11-12T09:23:38;8.00;99.90
27026;DHT22;14565;48.626;8.978;2022-11-12T09:26:04;7.60;99.90
27026;DHT22;14565;48.626;8.978;2022-11-12T09:28:31;7.80;99.90
27026;DHT22;14565;48.626;8.978;2022-11-12T09:30:57;7.80;99.90
27026;DHT22;14565;48.626;8.978;2022-11-12T09:33:23;7.90;99.90
27026;DHT22;14565;48.626;8.978;2022-11-12T09:35:50;8.10;99.90
27026;DHT22;14565;48.626;8.978;2022-11-12T09:38:16;8.20;99.90
27026;DHT22;14565;48.626;8.978;2022-11-12T09:43:42;8.00;99.90
27026;DHT22;14565;48.626;8.978;2022-11-12T09:52:20;8.60;99.90
27026;DHT22;14565;48.626;8.978;2022-11-12T09:54:51;8.60;99.90
27026;DHT22;14565;48.626;8.978;2022-11-12T09:57:20;8.70;99.90
27026;DHT22;14565;48.626;8.978;2022-11-12T09:59:45;8.80;99.90
27026;DHT22;14565;48.626;8.978;2022-11-12T10:02:22;8.80;99.90
27026;DHT22;14565;48.626;8.978;2022-11-12T10:24:06;9.90;99.90
27026;DHT22;14565;48.626;8.978;2022-11-12T10:26:32;9.50;99.90
27026;DHT22;14565;48.626;8.978;2022-11-12T10:29:17;9.70;99.90
27026;DHT22;14565;48.626;8.978;2022-11-12T10:31:45;9.90;99.90
27026;DHT22;14565;48.626;8.978;2022-11-12T10:34:21;9.80;99.90
27026;DHT22;14565;48.626;8.978;2022-11-12T10:36:52;10.00;99.90
27026;DHT22;14565;48.626;8.978;2022-11-12T10:39:39;9.80;99.90
27026;DHT22;14565;48.626;8.978;2022-11-12T10:42:08;9.80;99.90
27026;DHT22;14565;48.626;8.978;2022-11-12T10:44:35;10.00;99.90
27026;DHT22;14565;48.626;8.978;2022-11-12T10:52:29;9.80;99.90
27026;DHT22;14565;48.626;8.978;2022-11-12T10:55:17;9.90;99.90
27026;DHT22;14565;48.626;8.978;2022-11-12T10:57:43;10.10;99.90
27026;DHT22;14565;48.626;8.978;2022-11-12T11:02:50;10.10;99.90
27026;DHT22;14565;48.626;8.978;2022-11-12T11:07:52;9.90;99.90
27026;DHT22;14565;48.626;8.978;2022-11-12T11:10:29;10.00;99.90
27026;DHT22;14565;48.626;8.978;2022-11-12T11:15:33;9.90;99.90
27026;DHT22;14565;48.626;8.978;2022-11-12T11:17:59;9.50;99.90
27026;DHT22;14565;48.626;8.978;2022-11-12T11:20:34;9.60;99.90
27026;DHT22;14565;48.626;8.978;2022-11-12T11:23:09;9.80;99.90
27026;DHT22;14565;48.626;8.978;2022-11-12T11:25:42;9.90;99.90
27026;DHT22;14565;48.626;8.978;2022-11-12T11:28:16;9.90;99.90
27026;DHT22;14565;48.626;8.978;2022-11-12T11:38:53;10.10;99.90
27026;DHT22;14565;48.626;8.978;2022-11-12T11:52:32;10.50;99.90
27026;DHT22;14565;48.626;8.978;2022-11-12T11:55:23;10.50;99.90
27026;DHT22;14565;48.626;8.978;2022-11-12T11:58:20;10.60;99.90
27026;DHT22;14565;48.626;8.978;2022-11-12T12:06:27;10.70;99.90
27026;DHT22;14565;48.626;8.978;2022-11-12T12:21:40;11.30;99.90
27026;DHT22;14565;48.626;8.978;2022-11-12T12:26:51;11.40;99.90
27026;DHT22;14565;48.626;8.978;2022-11-12T12:29:32;11.50;99.90
27026;DHT22;14565;48.626;8.978;2022-11-12T12:32:01;11.50;99.90
27026;DHT22;14565;48.626;8.978;2022-11-12T12:34:38;11.40;99.90
27026;DHT22;14565;48.626;8.978;2022-11-12T12:37:34;11.60;99.90
27026;DHT22;14565;48.626;8.978;2022-11-12T12:43:16;11.40;99.90
27026;DHT22;14565;48.626;8.978;2022-11-12T12:45:45;11.70;99.90
27026;DHT22;14565;48.626;8.978;2022-11-12T12:48:20;11.70;99.90
27026;DHT22;14565;48.626;8.978;2022-11-12T12:50:48;11.60;99.90
27026;DHT22;14565;48.626;8.978;2022-11-12T12:53:15;11.50;99.90
27026;DHT22;14565;48.626;8.978;2022-11-12T12:55:49;11.60;99.90
27026;DHT22;14565;48.626;8.978;2022-11-12T12:58:16;11.60;99.90
27026;DHT22;14565;48.626;8.978;2022-11-12T13:01:00;11.60;99.90
27026;DHT22;14565;48.626;8.978;2022-11-12T13:08:38;11.70;99.90
27026;DHT22;14565;48.626;8.978;2022-11-12T13:11:04;11.70;99.90
27026;DHT22;14565;48.626;8.978;2022-11-12T13:13:35;11.70;99.90
27026;DHT22;14565;48.626;8.978;2022-11-12T13:16:02;11.50;99.90
27026;DHT22;14565;48.626;8.978;2022-11-12T13:21:17;11.50;99.90
27026;DHT22;14565;48.626;8.978;2022-11-12T13:23:51;11.50;99.90
27026;DHT22;14565;48.626;8.978;2022-11-12T13:32:27;11.40;99.90
27026;DHT22;14565;48.626;8.978;2022-11-12T13:43:40;11.50;99.90
27026;DHT22;14565;48.626;8.978;2022-11-12T13:51:12;11.60;99.90
27026;DHT22;14565;48.626;8.978;2022-11-12T13:53:38;11.50;99.90
27026;DHT22;14565;48.626;8.978;2022-11-12T13:56:04;11.50;99.90
27026;DHT22;14565;48.626;8.978;2022-11-12T13:58:31;11.40;99.90
27026;DHT22;14565;48.626;8.978;2022-11-12T14:00:59;11.50;99.90
27026;DHT22;14565;48.626;8.978;2022-11-12T14:03:59;11.60;99.90
27026;DHT22;14565;48.626;8.978;2022-11-12T14:06:34;11.20;99.90
27026;DHT22;14565;48.626;8.978;2022-11-12T14:15:23;10.90;99.90
27026;DHT22;14565;48.626;8.978;2022-11-12T14:20:33;10.80;99.90
27026;DHT22;14565;48.626;8.978;2022-11-12T14:23:20;10.80;99.90
27026;DHT22;14565;48.626;8.978;2022-11-12T14:28:35;10.80;99.90
27026;DHT22;14565;48.626;8.978;2022-11-12T14:31:02;10.90;99.90
27026;DHT22;14565;48.626;8.978;2022-11-12T14:33:30;10.90;99.90
27026;DHT22;14565;48.626;8.978;2022-11-12T14:38:57;10.90;99.90
27026;DHT22;14565;48.626;8.978;2022-11-12T14:41:25;10.70;99.90
27026;DHT22;14565;48.626;8.978;2022-11-12T14:43:56;10.50;99.90
27026;DHT22;14565;48.626;8.978;2022-11-12T14:46:37;10.70;99.90
27026;DHT22;14565;48.626;8.978;2022-11-12T14:51:55;10.50;99.90
27026;DHT22;14565;48.626;8.978;2022-11-12T14:54:35;10.70;99.90
27026;DHT22;14565;48.626;8.978;2022-11-12T14:57:05;10.50;99.90
27026;DHT22;14565;48.626;8.978;2022-11-12T14:59:31;10.60;99.90
27026;DHT22;14565;48.626;8.978;2022-11-12T15:04:40;10.50;99.90
27026;DHT22;14565;48.626;8.978;2022-11-12T15:13:21;10.40;99.90
27026;DHT22;14565;48.626;8.978;2022-11-12T15:16:07;10.20;99.90
27026;DHT22;14565;48.626;8.978;2022-11-12T15:18:34;10.10;99.90
27026;DHT22;14565;48.626;8.978;2022-11-12T15:21:25;10.10;99.90
27026;DHT22;14565;48.626;8.978;2022-11-12T15:26:34;9.90;99.90
27026;DHT22;14565;48.626;8.978;2022-11-12T15:31:51;9.80;99.90
27026;DHT22;14565;48.626;8.978;2022-11-12T15:36:50;9.60;99.90
27026;DHT22;14565;48.626;8.978;2022-11-12T15:39:16;9.40;99.90
27026;DHT22;14565;48.626;8.978;2022-11-12T15:41:42;9.30;99.90
27026;DHT22;14565;48.626;8.978;2022-11-12T15:44:08;9.10;99.90
27026;DHT22;14565;48.626;8.978;2022-11-12T15:46:36;9.20;99.90
27026;DHT22;14565;48.626;8.978;2022-11-12T15:49:02;9.00;99.90
27026;DHT22;14565;48.626;8.978;2022-11-12T15:51:27;8.90;99.90
27026;DHT22;14565;48.626;8.978;2022-11-12T15:53:53;8.90;99.90
27026;DHT22;14565;48.626;8.978;2022-11-12T15:56:19;8.90;99.90
27026;DHT22;14565;48.626;8.978;2022-11-12T15:58:48;8.70;99.90
27026;DHT22;14565;48.626;8.978;2022-11-12T16:01:13;8.70;99.90
27026;DHT22;14565;48.626;8.978;2022-11-12T16:03:39;8.60;99.90
27026;DHT22;14565;48.626;8.978;2022-11-12T16:06:05;8.50;99.90
27026;DHT22;14565;48.626;8.978;2022-11-12T16:08:30;8.40;99.90
27026;DHT22;14565;48.626;8.978;2022-11-12T16:10:56;8.30;99.90
27026;DHT22;14565;48.626;8.978;2022-11-12T16:13:27;8.20;99.90
27026;DHT22;14565;48.626;8.978;2022-11-12T16:15:54;8.20;99.90
27026;DHT22;14565;48.626;8.978;2022-11-12T16:18:19;8.10;99.90
27026;DHT22;14565;48.626;8.978;2022-11-12T16:20:46;8.00;99.90
27026;DHT22;14565;48.626;8.978;2022-11-12T16:23:13;7.90;99.90
27026;DHT22;14565;48.626;8.978;2022-11-12T16:25:39;7.80;99.90
27026;DHT22;14565;48.626;8.978;2022-11-12T16:28:13;7.80;99.90
27026;DHT22;14565;48.626;8.978;2022-11-12T16:30:39;7.70;99.90
27026;DHT22;14565;48.626;8.978;2022-11-12T16:33:05;7.60;99.90
27026;DHT22;14565;48.626;8.978;2022-11-12T16:35:32;7.60;99.90
27026;DHT22;14565;48.626;8.978;2022-11-12T16:37:58;7.70;99.90
27026;DHT22;14565;48.626;8.978;2022-11-12T16:40:27;7.60;99.90
27026;DHT22;14565;48.626;8.978;2022-11-12T16:42:53;7.50;99.90
27026;DHT22;14565;48.626;8.978;2022-11-12T16:45:23;7.50;99.90
27026;DHT22;14565;48.626;8.978;2022-11-12T16:47:52;7.50;99.90
27026;DHT22;14565;48.626;8.978;2022-11-12T16:50:20;7.40;99.90
27026;DHT22;14565;48.626;8.978;2022-11-12T16:52:47;7.50;99.90
27026;DHT22;14565;48.626;8.978;2022-11-12T16:55:13;7.50;99.90
27026;DHT22;14565;48.626;8.978;2022-11-12T16:57:39;7.50;99.90
27026;DHT22;14565;48.626;8.978;2022-11-12T17:00:06;7.50;99.90
27026;DHT22;14565;48.626;8.978;2022-11-12T17:02:34;7.40;99.90
27026;DHT22;14565;48.626;8.978;2022-11-12T17:05:02;7.30;99.90
27026;DHT22;14565;48.626;8.978;2022-11-12T17:07:27;7.20;99.90
27026;DHT22;14565;48.626;8.978;2022-11-12T17:09:53;7.20;99.90
27026;DHT22;14565;48.626;8.978;2022-11-12T17:12:19;7.20;99.90
27026;DHT22;14565;48.626;8.978;2022-11-12T17:14:45;7.20;99.90
27026;DHT22;14565;48.626;8.978;2022-11-12T17:17:10;7.10;99.90
27026;DHT22;14565;48.626;8.978;2022-11-12T17:19:36;6.90;99.90
27026;DHT22;14565;48.626;8.978;2022-11-12T17:22:02;7.00;99.90
27026;DHT22;14565;48.626;8.978;2022-11-12T17:24:28;6.90;99.90
27026;DHT22;14565;48.626;8.978;2022-11-12T17:26:53;6.70;99.90
27026;DHT22;14565;48.626;8.978;2022-11-12T17:29:19;6.50;99.90
27026;DHT22;14565;48.626;8.978;2022-11-12T17:31:48;6.50;99.90
27026;DHT22;14565;48.626;8.978;2022-11-12T17:34:14;6.50;99.90
27026;DHT22;14565;48.626;8.978;2022-11-12T17:36:40;6.40;99.90
27026;DHT22;14565;48.626;8.978;2022-11-12T17:39:09;6.30;99.90
27026;DHT22;14565;48.626;8.978;2022-11-12T17:41:34;6.20;99.90
27026;DHT22;14565;48.626;8.978;2022-11-12T17:44:01;6.20;99.90
27026;DHT22;14565;48.626;8.978;2022-11-12T17:46:27;6.20;99.90
27026;DHT22;14565;48.626;8.978;2022-11-12T17:48:54;6.10;99.90
27026;DHT22;14565;48.626;8.978;2022-11-12T17:51:21;6.00;99.90
27026;DHT22;14565;48.626;8.978;2022-11-12T17:53:48;6.00;99.90
27026;DHT22;14565;48.626;8.978;2022-11-12T17:56:17;6.00;99.90
27026;DHT22;14565;48.626;8.978;2022-11-12T17:58:44;6.00;99.90
27026;DHT22;14565;48.626;8.978;2022-11-12T18:03:43;5.90;99.90
27026;DHT22;14565;48.626;8.978;2022-11-12T18:06:11;5.90;99.90
27026;DHT22;14565;48.626;8.978;2022-11-12T18:08:38;5.90;99.90
27026;DHT22;14565;48.626;8.978;2022-11-12T18:11:04;5.80;99.90
27026;DHT22;14565;48.626;8.978;2022-11-12T18:13:30;5.80;99.90
27026;DHT22;14565;48.626;8.978;2022-11-12T18:15:55;5.80;99.90
27026;DHT22;14565;48.626;8.978;2022-11-12T18:18:21;5.70;99.90
27026;DHT22;14565;48.626;8.978;2022-11-12T18:20:46;5.70;99.90
27026;DHT22;14565;48.626;8.978;2022-11-12T18:23:12;5.60;99.90
27026;DHT22;14565;48.626;8.978;2022-11-12T18:25:38;5.60;99.90
27026;DHT22;14565;48.626;8.978;2022-11-12T18:28:05;5.50;99.90
27026;DHT22;14565;48.626;8.978;2022-11-12T18:30:31;5.50;99.90